Time;durP1;ratioP1;P1;durP2;ratioP2;P2;SDS_P1;SDS_P2;PMS_P1;PMS_P2;Temp;Humidity;BMP_temperature;BMP_pressure;BME280_temperature;BME280_humidity;BME280_pressure;Samples;Min_cycle;Max_cycle;Signal;HPM_P1;HPM_P2
2022/04/28 00:01:19;;;;;;;;;18.00;13.00;;;;;;;;5057611;28;45518;-71
2022/04/28 00:03:44;;;;;;;;;15.33;12.67;;;;;;;;5057336;28;46267;-70
2022/04/28 00:06:10;;;;;;;;;12.67;8.67;;;;;;;;5057156;28;45419;-70
2022/04/28 00:08:35;;;;;;;;;17.00;12.33;;;;;;;;5059673;28;45505;-69
2022/04/28 00:11:00;;;;;;;;;14.67;12.33;;;;;;;;5058459;28;45167;-71
2022/04/28 00:13:27;;;;;;;;;12.00;12.00;;;;;;;;5058582;28;46398;-70
2022/04/28 00:15:53;;;;;;;;;13.33;10.67;;;;;;;;5077594;27;45389;-70
2022/04/28 00:18:18;;;;;;;;;14.67;13.33;;;;;;;;5077456;28;45315;-69
2022/04/28 00:20:43;;;;;;;;;16.00;13.00;;;;;;;;5065901;27;45464;-69
2022/04/28 00:23:09;;;;;;;;;13.67;12.67;;;;;;;;5057023;28;46625;-71
2022/04/28 00:25:34;;;;;;;;;17.00;12.67;;;;;;;;5057029;28;45401;-71
2022/04/28 00:27:59;;;;;;;;;8.67;7.33;;;;;;;;5062593;28;45424;-71
2022/04/28 00:30:25;;;;;;;;;19.00;14.33;;;;;;;;5075750;28;45317;-71
2022/04/28 00:32:50;;;;;;;;;16.67;12.33;;;;;;;;5077180;27;45878;-71
2022/04/28 00:35:15;;;;;;;;;14.00;9.00;;;;;;;;5075024;27;45502;-71
2022/04/28 00:37:41;;;;;;;;;16.67;13.67;;;;;;;;5077404;27;45351;-71
2022/04/28 00:40:06;;;;;;;;;12.00;12.00;;;;;;;;5072224;27;45332;-71
2022/04/28 00:42:31;;;;;;;;;19.33;14.67;;;;;;;;5056814;28;45601;-71
2022/04/28 00:44:57;;;;;;;;;21.00;12.33;;;;;;;;5072156;28;45438;-70
2022/04/28 00:47:22;;;;;;;;;15.67;13.67;;;;;;;;5073181;27;45385;-71
2022/04/28 00:52:32;;;;;;;;;11.67;10.00;;;;;;;;5057090;28;45750;-71
2022/04/28 00:54:58;;;;;;;;;17.33;14.33;;;;;;;;5059957;28;45262;-70
2022/04/28 00:57:24;;;;;;;;;13.67;12.67;;;;;;;;5069905;28;45449;-70
2022/04/28 00:59:50;;;;;;;;;15.00;13.00;;;;;;;;5080456;27;45451;-70
2022/04/28 01:02:18;;;;;;;;;11.67;11.67;;;;;;;;5078892;28;45252;-71
2022/04/28 01:04:43;;;;;;;;;19.33;15.00;;;;;;;;5079833;27;45545;-71
2022/04/28 01:07:08;;;;;;;;;13.67;9.33;;;;;;;;5080619;27;45327;-70
2022/04/28 01:09:37;;;;;;;;;14.67;13.00;;;;;;;;5078110;27;45419;-71
2022/04/28 01:12:07;;;;;;;;;9.00;9.00;;;;;;;;5063737;28;46278;-71
2022/04/28 01:14:32;;;;;;;;;12.33;9.00;;;;;;;;5080166;27;45249;-72
2022/04/28 01:16:58;;;;;;;;;16.67;13.67;;;;;;;;5080303;27;45805;-72
2022/04/28 01:19:23;;;;;;;;;12.67;11.00;;;;;;;;5080298;27;45377;-71
2022/04/28 01:21:50;;;;;;;;;9.67;9.67;;;;;;;;5079818;27;45895;-71
2022/04/28 01:24:15;;;;;;;;;14.00;12.33;;;;;;;;5067726;27;45416;-72
2022/04/28 01:26:41;;;;;;;;;18.67;13.00;;;;;;;;5076948;28;45887;-71
2022/04/28 01:29:06;;;;;;;;;13.67;11.67;;;;;;;;5080429;27;45341;-72
2022/04/28 01:31:32;;;;;;;;;16.33;12.00;;;;;;;;5063123;27;45397;-72
2022/04/28 01:33:57;;;;;;;;;18.67;15.33;;;;;;;;5079749;27;45765;-72
2022/04/28 01:36:23;;;;;;;;;10.33;9.67;;;;;;;;5078166;27;45412;-72
2022/04/28 01:38:48;;;;;;;;;16.67;13.00;;;;;;;;5074038;27;45905;-71
2022/04/28 01:41:13;;;;;;;;;11.33;11.00;;;;;;;;5070896;28;45342;-71
2022/04/28 01:43:39;;;;;;;;;12.67;11.33;;;;;;;;5065212;27;45340;-72
2022/04/28 01:46:05;;;;;;;;;14.00;13.00;;;;;;;;5079803;27;45252;-71
2022/04/28 01:48:30;;;;;;;;;16.00;13.00;;;;;;;;5079953;27;45418;-71
2022/04/28 01:56:23;;;;;;;;;13.67;12.00;;;;;;;;5070449;28;45268;-71
2022/04/28 01:58:48;;;;;;;;;13.00;8.33;;;;;;;;5079722;27;45285;-71
2022/04/28 02:01:14;;;;;;;;;13.00;11.00;;;;;;;;5069416;28;46444;-71
2022/04/28 02:03:39;;;;;;;;;15.00;13.67;;;;;;;;5071706;28;45387;-71
2022/04/28 02:06:04;;;;;;;;;13.00;9.67;;;;;;;;5079456;28;45364;-72
2022/04/28 02:08:29;;;;;;;;;14.33;11.67;;;;;;;;5071346;27;45414;-71
2022/04/28 02:10:55;;;;;;;;;11.67;11.00;;;;;;;;5069993;28;46353;-71
2022/04/28 02:13:23;;;;;;;;;11.00;11.00;;;;;;;;5064925;28;45327;-72
2022/04/28 02:15:48;;;;;;;;;14.00;10.33;;;;;;;;5059051;28;45339;-71
2022/04/28 02:18:13;;;;;;;;;14.00;12.67;;;;;;;;5072139;28;45339;-70
2022/04/28 02:20:38;;;;;;;;;14.33;12.33;;;;;;;;5071512;28;46655;-71
2022/04/28 02:23:04;;;;;;;;;13.67;9.33;;;;;;;;5063303;28;45414;-72
2022/04/28 02:25:29;;;;;;;;;18.00;10.67;;;;;;;;5079274;28;45257;-71
2022/04/28 02:27:55;;;;;;;;;12.67;10.00;;;;;;;;5068841;28;45316;-72
2022/04/28 02:30:20;;;;;;;;;19.00;13.67;;;;;;;;5058649;28;45438;-71
2022/04/28 02:35:29;;;;;;;;;12.33;12.33;;;;;;;;5068886;28;45341;-71
2022/04/28 02:37:54;;;;;;;;;17.33;12.67;;;;;;;;5058767;28;45302;-72
2022/04/28 02:40:20;;;;;;;;;14.67;12.00;;;;;;;;5076959;28;46467;-71
2022/04/28 02:42:45;;;;;;;;;16.67;13.67;;;;;;;;5078879;27;45423;-72
2022/04/28 02:45:10;;;;;;;;;13.67;12.00;;;;;;;;5079175;28;45221;-71
2022/04/28 02:47:35;;;;;;;;;19.33;14.00;;;;;;;;5076354;28;45438;-71
2022/04/28 02:50:02;;;;;;;;;16.00;13.00;;;;;;;;5066587;27;46486;-72
2022/04/28 02:52:27;;;;;;;;;17.00;11.00;;;;;;;;5078585;27;45437;-72
2022/04/28 02:54:52;;;;;;;;;13.00;12.67;;;;;;;;5078461;28;45293;-72
2022/04/28 02:57:17;;;;;;;;;17.00;14.00;;;;;;;;5077139;28;45521;-72
2022/04/28 02:59:43;;;;;;;;;12.33;11.00;;;;;;;;5076677;27;46261;-71
2022/04/28 03:02:08;;;;;;;;;14.67;11.67;;;;;;;;5066145;27;45277;-72
2022/04/28 03:04:33;;;;;;;;;13.67;12.00;;;;;;;;5073580;28;45209;-71
2022/04/28 03:12:26;;;;;;;;;22.00;16.67;;;;;;;;5059013;28;45505;-71
2022/04/28 03:14:51;;;;;;;;;25.33;15.67;;;;;;;;5058428;28;45304;-71
2022/04/28 03:17:17;;;;;;;;;15.67;14.00;;;;;;;;5070055;28;45479;-71
2022/04/28 03:19:42;;;;;;;;;9.00;7.00;;;;;;;;5078326;27;46548;-70
2022/04/28 03:22:08;;;;;;;;;15.00;15.00;;;;;;;;5077830;27;45404;-71
2022/04/28 03:24:34;;;;;;;;;17.67;15.00;;;;;;;;5078595;27;45722;-72
2022/04/28 03:26:59;;;;;;;;;19.33;13.33;;;;;;;;5072319;27;45272;-71
2022/04/28 03:29:24;;;;;;;;;18.33;13.33;;;;;;;;5066849;28;46163;-71
2022/04/28 03:31:50;;;;;;;;;14.00;14.00;;;;;;;;5061287;27;45223;-72
2022/04/28 03:34:15;;;;;;;;;16.00;16.00;;;;;;;;5058952;28;45582;-72
2022/04/28 03:36:52;;;;;;;;;18.67;16.00;;;;;;;;5068031;28;45523;-71
2022/04/28 03:39:18;;;;;;;;;17.00;14.00;;;;;;;;5077919;27;46692;-71
2022/04/28 03:41:43;;;;;;;;;14.00;13.67;;;;;;;;5077914;27;45270;-71
2022/04/28 03:44:09;;;;;;;;;16.00;14.00;;;;;;;;5060680;28;45420;-72
2022/04/28 03:46:35;;;;;;;;;16.00;15.00;;;;;;;;5065561;28;45316;-71
2022/04/28 03:49:00;;;;;;;;;21.00;15.67;;;;;;;;5077622;27;46314;-71
2022/04/28 03:51:25;;;;;;;;;13.67;12.33;;;;;;;;5076333;27;45422;-71
2022/04/28 03:53:50;;;;;;;;;13.00;10.67;;;;;;;;5077660;27;45533;-71
2022/04/28 03:56:16;;;;;;;;;18.33;16.00;;;;;;;;5064613;27;45547;-72
2022/04/28 03:58:41;;;;;;;;;17.00;15.00;;;;;;;;5057190;28;46145;-71
2022/04/28 04:01:07;;;;;;;;;16.67;13.33;;;;;;;;5058104;28;45352;-72
2022/04/28 04:03:32;;;;;;;;;15.33;15.00;;;;;;;;5057424;28;45409;-71
2022/04/28 04:05:58;;;;;;;;;21.67;15.00;;;;;;;;5063960;28;45303;-71
2022/04/28 04:08:23;;;;;;;;;15.33;13.00;;;;;;;;5075611;27;46382;-71
2022/04/28 04:10:49;;;;;;;;;16.00;14.33;;;;;;;;5063523;27;45274;-73
2022/04/28 04:13:14;;;;;;;;;18.00;14.00;;;;;;;;5058128;28;45250;-72
2022/04/28 04:15:39;;;;;;;;;14.67;13.67;;;;;;;;5058685;28;45468;-73
2022/04/28 04:18:04;;;;;;;;;21.67;16.67;;;;;;;;5056941;28;45582;-73
2022/04/28 04:20:30;;;;;;;;;21.00;18.00;;;;;;;;5057207;28;45217;-72
2022/04/28 04:22:55;;;;;;;;;13.67;12.67;;;;;;;;5057085;28;45445;-72
2022/04/28 04:25:21;;;;;;;;;17.33;15.33;;;;;;;;5057083;28;45469;-71
2022/04/28 04:27:47;;;;;;;;;17.67;17.33;;;;;;;;5062942;28;45614;-72
2022/04/28 04:32:56;;;;;;;;;20.00;18.00;;;;;;;;5080975;28;45381;-71
2022/04/28 04:35:24;;;;;;;;;15.67;14.00;;;;;;;;5073669;28;45226;-69
2022/04/28 04:37:53;;;;;;;;;18.67;16.00;;;;;;;;5062942;28;46173;-71
2022/04/28 04:40:18;;;;;;;;;20.00;16.67;;;;;;;;5080746;27;45484;-72
2022/04/28 04:42:43;;;;;;;;;25.33;18.00;;;;;;;;5080852;27;45374;-71
2022/04/28 04:45:09;;;;;;;;;16.00;14.00;;;;;;;;5080956;27;45309;-71
2022/04/28 04:47:34;;;;;;;;;20.00;14.67;;;;;;;;5080555;28;45537;-72
2022/04/28 04:50:00;;;;;;;;;25.00;15.33;;;;;;;;5078410;27;45158;-69
2022/04/28 04:52:25;;;;;;;;;23.67;15.00;;;;;;;;5071368;27;45486;-71
2022/04/28 04:54:50;;;;;;;;;19.00;14.33;;;;;;;;5080669;27;45281;-70
2022/04/28 04:57:15;;;;;;;;;18.33;15.33;;;;;;;;5078353;27;46843;-70
2022/04/28 04:59:41;;;;;;;;;14.00;13.33;;;;;;;;5080575;27;45212;-73
2022/04/28 05:02:06;;;;;;;;;17.00;15.33;;;;;;;;5064310;27;45542;-70
2022/04/28 05:04:31;;;;;;;;;19.67;16.67;;;;;;;;5060189;28;45192;-71
2022/04/28 05:06:56;;;;;;;;;18.33;15.00;;;;;;;;5078246;27;45338;-72
2022/04/28 05:09:21;;;;;;;;;18.67;16.00;;;;;;;;5080287;27;45434;-73
2022/04/28 05:11:47;;;;;;;;;15.00;13.33;;;;;;;;5063013;27;45430;-72
2022/04/28 05:14:12;;;;;;;;;17.33;13.67;;;;;;;;5074012;28;45222;-72
2022/04/28 05:16:37;;;;;;;;;19.00;15.00;;;;;;;;5063117;28;46284;-72
2022/04/28 05:19:02;;;;;;;;;18.00;13.67;;;;;;;;5079932;27;45345;-72
2022/04/28 05:21:28;;;;;;;;;19.33;17.00;;;;;;;;5073641;27;45209;-71
2022/04/28 05:23:53;;;;;;;;;16.67;14.67;;;;;;;;5069458;28;45403;-71
2022/04/28 05:26:18;;;;;;;;;19.00;13.67;;;;;;;;5070994;27;46916;-71
2022/04/28 05:28:44;;;;;;;;;12.00;11.33;;;;;;;;5071542;28;45353;-72
2022/04/28 05:31:09;;;;;;;;;20.00;15.00;;;;;;;;5070384;28;45311;-70
2022/04/28 05:33:34;;;;;;;;;15.33;15.00;;;;;;;;5059939;28;45250;-70
2022/04/28 05:36:00;;;;;;;;;14.67;14.67;;;;;;;;5072315;28;46189;-70
2022/04/28 05:38:27;;;;;;;;;20.00;14.67;;;;;;;;5077036;27;45772;-70
2022/04/28 05:40:52;;;;;;;;;22.00;18.00;;;;;;;;5060564;27;45301;-70
2022/04/28 05:46:01;;;;;;;;;23.33;16.33;;;;;;;;5064110;28;45667;-71
2022/04/28 05:48:26;;;;;;;;;20.67;14.67;;;;;;;;5079574;27;45347;-71
2022/04/28 05:50:52;;;;;;;;;19.67;17.00;;;;;;;;5080016;27;45363;-72
2022/04/28 05:53:17;;;;;;;;;17.67;16.33;;;;;;;;5070247;27;45333;-72
2022/04/28 05:55:43;;;;;;;;;18.00;15.33;;;;;;;;5068515;28;48180;-72
2022/04/28 05:58:08;;;;;;;;;20.00;17.00;;;;;;;;5072656;28;45313;-72
2022/04/28 06:00:34;;;;;;;;;17.00;14.33;;;;;;;;5059378;28;45396;-72
2022/04/28 06:03:00;;;;;;;;;17.00;13.67;;;;;;;;5059433;28;45452;-72
2022/04/28 06:05:25;;;;;;;;;14.00;12.33;;;;;;;;5063144;28;46800;-72
2022/04/28 06:07:51;;;;;;;;;12.00;10.67;;;;;;;;5059801;28;45472;-73
2022/04/28 06:10:16;;;;;;;;;23.00;19.67;;;;;;;;5058962;28;45197;-73
2022/04/28 06:12:41;;;;;;;;;16.00;14.00;;;;;;;;5059278;28;45201;-73
2022/04/28 06:15:07;;;;;;;;;19.67;15.00;;;;;;;;5059958;28;46369;-72
2022/04/28 06:17:32;;;;;;;;;18.67;17.33;;;;;;;;5077677;28;45456;-72
2022/04/28 06:19:58;;;;;;;;;18.33;15.00;;;;;;;;5079536;27;45263;-72
2022/04/28 06:22:23;;;;;;;;;16.67;16.67;;;;;;;;5079261;28;45438;-73
2022/04/28 06:24:51;;;;;;;;;16.67;16.00;;;;;;;;5078924;28;46851;-72
2022/04/28 06:27:17;;;;;;;;;24.00;17.00;;;;;;;;5078163;27;45378;-72
2022/04/28 06:29:42;;;;;;;;;17.67;13.33;;;;;;;;5076656;27;45553;-67
2022/04/28 06:32:07;;;;;;;;;26.33;19.00;;;;;;;;5078731;28;45351;-68
2022/04/28 06:34:32;;;;;;;;;18.00;15.00;;;;;;;;5084691;27;46300;-68
2022/04/28 06:36:58;;;;;;;;;23.33;18.00;;;;;;;;5062731;27;45355;-72
2022/04/28 06:39:23;;;;;;;;;20.33;18.67;;;;;;;;5078872;27;45394;-73
2022/04/28 06:41:48;;;;;;;;;21.67;14.00;;;;;;;;5079109;27;45319;-72
2022/04/28 06:44:13;;;;;;;;;20.33;16.00;;;;;;;;5076825;27;46577;-73
2022/04/28 06:46:38;;;;;;;;;15.67;14.00;;;;;;;;5078583;27;45502;-71
2022/04/28 06:49:04;;;;;;;;;20.33;17.00;;;;;;;;5078768;27;45272;-73
2022/04/28 06:51:29;;;;;;;;;22.00;19.67;;;;;;;;5076786;27;45406;-72
2022/04/28 06:53:54;;;;;;;;;23.33;20.33;;;;;;;;5077864;27;46454;-72
2022/04/28 06:56:19;;;;;;;;;15.33;13.33;;;;;;;;5076944;27;45505;-73
2022/04/28 06:58:45;;;;;;;;;19.67;16.67;;;;;;;;5067696;28;45226;-72
2022/04/28 07:01:10;;;;;;;;;22.00;18.67;;;;;;;;5062461;28;45520;-72
2022/04/28 07:03:35;;;;;;;;;28.00;20.67;;;;;;;;5057807;28;45360;-73
2022/04/28 07:06:01;;;;;;;;;17.00;16.00;;;;;;;;5060560;28;45454;-72
2022/04/28 07:08:26;;;;;;;;;29.00;22.00;;;;;;;;5077820;27;45189;-71
2022/04/28 07:10:51;;;;;;;;;19.00;17.33;;;;;;;;5059848;28;45372;-72
2022/04/28 07:13:16;;;;;;;;;23.33;20.67;;;;;;;;5074885;27;47609;-72
2022/04/28 07:15:42;;;;;;;;;22.00;18.67;;;;;;;;5060177;28;45223;-72
2022/04/28 07:18:07;;;;;;;;;29.33;23.33;;;;;;;;5078429;27;45273;-72
2022/04/28 07:20:33;;;;;;;;;25.33;20.33;;;;;;;;5078768;27;45258;-71
2022/04/28 07:22:59;;;;;;;;;22.33;21.00;;;;;;;;5078064;27;46731;-72
2022/04/28 07:25:25;;;;;;;;;22.33;21.00;;;;;;;;5078067;28;45353;-72
2022/04/28 07:27:50;;;;;;;;;24.00;19.33;;;;;;;;5078254;27;45294;-72
2022/04/28 07:30:15;;;;;;;;;30.33;23.33;;;;;;;;5075893;27;45444;-71
2022/04/28 07:32:41;;;;;;;;;24.33;20.33;;;;;;;;5076164;27;47173;-72
2022/04/28 07:35:06;;;;;;;;;27.33;21.67;;;;;;;;5057548;28;45483;-72
2022/04/28 07:37:31;;;;;;;;;25.33;22.33;;;;;;;;5058105;28;45337;-72
2022/04/28 07:39:57;;;;;;;;;24.00;21.33;;;;;;;;5058563;28;45348;-72
2022/04/28 07:42:22;;;;;;;;;26.33;20.00;;;;;;;;5057516;28;45603;-72
2022/04/28 07:44:47;;;;;;;;;23.00;21.33;;;;;;;;5066857;28;45514;-72
2022/04/28 07:47:12;;;;;;;;;21.33;19.67;;;;;;;;5060604;28;45321;-71
2022/04/28 07:49:37;;;;;;;;;27.67;24.67;;;;;;;;5057935;28;45304;-72
2022/04/28 07:52:03;;;;;;;;;20.33;20.33;;;;;;;;5070503;27;46470;-70
2022/04/28 07:54:28;;;;;;;;;27.00;21.00;;;;;;;;5076109;27;45385;-70
2022/04/28 07:56:53;;;;;;;;;22.33;20.33;;;;;;;;5068508;27;45482;-71
2022/04/28 07:59:18;;;;;;;;;22.00;21.00;;;;;;;;5076046;27;45340;-70
2022/04/28 08:01:44;;;;;;;;;21.33;19.33;;;;;;;;5061063;28;47171;-72
2022/04/28 08:04:09;;;;;;;;;19.33;17.33;;;;;;;;5075005;27;45264;-72
2022/04/28 08:06:34;;;;;;;;;26.67;22.00;;;;;;;;5077587;27;45193;-72
2022/04/28 08:09:00;;;;;;;;;27.00;22.00;;;;;;;;5070392;27;45396;-72
2022/04/28 08:11:25;;;;;;;;;21.33;19.33;;;;;;;;5071883;27;46800;-72
2022/04/28 08:13:50;;;;;;;;;25.00;22.00;;;;;;;;5076701;27;45352;-73
2022/04/28 08:16:15;;;;;;;;;30.00;22.33;;;;;;;;5076028;27;45532;-72
2022/04/28 08:18:40;;;;;;;;;25.67;21.00;;;;;;;;5076063;28;45201;-73
2022/04/28 08:21:08;;;;;;;;;24.33;19.33;;;;;;;;5076766;27;45452;-74
2022/04/28 08:23:34;;;;;;;;;26.00;22.33;;;;;;;;5072847;27;45393;-73
2022/04/28 08:25:59;;;;;;;;;24.00;21.00;;;;;;;;5076630;27;45494;-72
2022/04/28 08:28:25;;;;;;;;;25.33;25.00;;;;;;;;5076212;27;45729;-73
2022/04/28 08:30:50;;;;;;;;;24.33;21.67;;;;;;;;5067528;27;45470;-73
2022/04/28 08:33:15;;;;;;;;;31.00;26.00;;;;;;;;5056291;28;45367;-72
2022/04/28 08:35:40;;;;;;;;;25.33;22.67;;;;;;;;5056602;28;45445;-73
2022/04/28 08:38:06;;;;;;;;;26.67;22.00;;;;;;;;5075422;27;45408;-73
2022/04/28 08:40:31;;;;;;;;;25.00;20.67;;;;;;;;5075474;28;45880;-73
2022/04/28 08:42:58;;;;;;;;;28.00;25.33;;;;;;;;5076466;27;45439;-73
2022/04/28 08:45:28;;;;;;;;;22.33;21.33;;;;;;;;5074923;28;45502;-73
2022/04/28 08:47:56;;;;;;;;;23.00;23.00;;;;;;;;5071545;27;46896;-73
2022/04/28 08:50:22;;;;;;;;;32.67;29.00;;;;;;;;5076217;27;46394;-72
2022/04/28 08:52:48;;;;;;;;;31.33;25.33;;;;;;;;5076078;27;45360;-72
2022/04/28 08:55:15;;;;;;;;;24.00;22.33;;;;;;;;5055949;28;45385;-72
2022/04/28 08:57:40;;;;;;;;;26.00;23.33;;;;;;;;5056240;28;45512;-72
2022/04/28 09:00:05;;;;;;;;;30.00;24.00;;;;;;;;5055704;28;46392;-72
2022/04/28 09:02:32;;;;;;;;;26.00;21.67;;;;;;;;5056041;28;45376;-72
2022/04/28 09:05:04;;;;;;;;;29.67;26.33;;;;;;;;5055974;28;45444;-72
2022/04/28 09:07:37;;;;;;;;;26.67;24.00;;;;;;;;5056059;28;45272;-72
2022/04/28 09:10:26;;;;;;;;;23.00;22.33;;;;;;;;5055689;28;46563;-72
2022/04/28 09:15:52;;;;;;;;;26.00;25.67;;;;;;;;4977670;28;45443;-73
2022/04/28 09:18:18;;;;;;;;;24.33;21.67;;;;;;;;4977772;28;45372;-72
2022/04/28 09:20:44;;;;;;;;;34.33;28.33;;;;;;;;4977215;28;46585;-73
2022/04/28 09:23:10;;;;;;;;;32.00;23.33;;;;;;;;4987520;28;45465;-72
2022/04/28 09:25:35;;;;;;;;;37.00;27.33;;;;;;;;4996983;28;45403;-72
2022/04/28 09:28:02;;;;;;;;;36.33;29.33;;;;;;;;4997128;28;45635;-72
2022/04/28 09:30:34;;;;;;;;;34.33;28.67;;;;;;;;4993301;28;46880;-72
2022/04/28 09:33:07;;;;;;;;;30.33;28.33;;;;;;;;4991260;28;45430;-72
2022/04/28 09:35:33;;;;;;;;;30.00;27.00;;;;;;;;4996985;28;45419;-72
2022/04/28 09:37:59;;;;;;;;;27.33;24.67;;;;;;;;4995125;28;45636;-73
2022/04/28 09:43:08;;;;;;;;;28.33;24.33;;;;;;;;4979728;28;45438;-72
2022/04/28 09:45:33;;;;;;;;;30.67;25.33;;;;;;;;4978087;28;45457;-74
2022/04/28 09:48:00;;;;;;;;;30.00;25.33;;;;;;;;4978089;28;45493;-72
2022/04/28 09:50:25;;;;;;;;;33.00;26.00;;;;;;;;5037800;28;46393;-72
2022/04/28 09:52:53;;;;;;;;;30.67;26.33;;;;;;;;5059666;28;45349;-72
2022/04/28 09:55:22;;;;;;;;;33.33;25.00;;;;;;;;5076951;28;45454;-71
2022/04/28 09:57:47;;;;;;;;;37.00;26.00;;;;;;;;5092353;27;45846;-72
2022/04/28 10:00:13;;;;;;;;;27.00;20.00;;;;;;;;5059678;27;45513;-72
2022/04/28 10:02:39;;;;;;;;;36.67;29.33;;;;;;;;5058557;28;45737;-70
2022/04/28 10:05:05;;;;;;;;;32.00;29.00;;;;;;;;5058885;28;45465;-70
2022/04/28 10:07:30;;;;;;;;;28.67;26.00;;;;;;;;5058722;28;45611;-70
2022/04/28 10:09:56;;;;;;;;;32.33;28.67;;;;;;;;5064894;28;45412;-71
2022/04/28 10:12:22;;;;;;;;;30.33;27.67;;;;;;;;5078651;27;45450;-73
2022/04/28 10:14:48;;;;;;;;;32.33;29.00;;;;;;;;5078626;27;45679;-72
2022/04/28 10:17:22;;;;;;;;;30.00;27.33;;;;;;;;5078838;27;45395;-73
2022/04/28 10:19:51;;;;;;;;;32.33;28.67;;;;;;;;5077758;27;45513;-71
2022/04/28 10:22:19;;;;;;;;;38.33;32.00;;;;;;;;5059190;28;45470;-72
2022/04/28 10:33:04;;;;;;;;;29.67;24.00;;;;;;;;5076627;28;45302;-71
2022/04/28 10:35:38;;;;;;;;;27.00;27.00;;;;;;;;5078564;27;45532;-71
2022/04/28 10:38:11;;;;;;;;;30.33;29.33;;;;;;;;5078468;27;45556;-70
2022/04/28 10:40:37;;;;;;;;;24.67;23.67;;;;;;;;5077290;27;45972;-71
2022/04/28 10:43:02;;;;;;;;;29.67;27.67;;;;;;;;5078039;27;45386;-72
2022/04/28 10:45:36;;;;;;;;;32.50;31.00;;;;;;;;5073447;27;45458;-72
2022/04/28 10:48:23;;;;;;;;;35.33;31.00;;;;;;;;5076456;27;45414;-70
2022/04/28 10:51:04;;;;;;;;;30.33;30.00;;;;;;;;5066204;28;47727;-71
2022/04/28 10:53:29;;;;;;;;;31.33;28.33;;;;;;;;5068350;27;45376;-71
2022/04/28 10:55:54;;;;;;;;;31.00;29.67;;;;;;;;5077943;27;45436;-70
2022/04/28 10:58:24;;;;;;;;;32.67;28.67;;;;;;;;5078400;27;45461;-71
2022/04/28 11:00:55;;;;;;;;;32.00;29.33;;;;;;;;5077764;27;46406;-70
2022/04/28 11:03:40;;;;;;;;;37.00;31.33;;;;;;;;5076966;27;45473;-70
2022/04/28 11:06:13;;;;;;;;;34.67;30.67;;;;;;;;5077693;27;45309;-70
2022/04/28 11:08:43;;;;;;;;;24.00;21.67;;;;;;;;5078087;27;45438;-70
2022/04/28 11:11:11;;;;;;;;;34.00;31.33;;;;;;;;5063307;27;46510;-71
2022/04/28 11:13:37;;;;;;;;;26.00;23.33;;;;;;;;5068546;28;45787;-72
2022/04/28 11:16:02;;;;;;;;;39.33;30.67;;;;;;;;5072126;28;45430;-71
2022/04/28 11:18:28;;;;;;;;;38.67;33.00;;;;;;;;5057729;28;45397;-71
2022/04/28 11:20:59;;;;;;;;;36.67;33.00;;;;;;;;5057129;28;46610;-71
2022/04/28 11:23:25;;;;;;;;;27.00;25.33;;;;;;;;5070804;28;45503;-72
2022/04/28 11:25:50;;;;;;;;;43.33;35.33;;;;;;;;5077392;27;45506;-72
2022/04/28 11:28:15;;;;;;;;;30.33;27.00;;;;;;;;5078029;27;45416;-71
2022/04/28 11:30:41;;;;;;;;;27.00;26.67;;;;;;;;5066484;27;45495;-71
2022/04/28 11:33:09;;;;;;;;;33.33;29.67;;;;;;;;5068680;28;45348;-71
2022/04/28 11:35:36;;;;;;;;;32.67;30.33;;;;;;;;5077641;27;45459;-71
2022/04/28 11:38:01;;;;;;;;;37.67;31.67;;;;;;;;5058634;27;45193;-71
2022/04/28 11:40:27;;;;;;;;;32.00;31.33;;;;;;;;5074448;28;46614;-71
2022/04/28 11:42:56;;;;;;;;;33.33;31.00;;;;;;;;5077449;27;45454;-71
2022/04/28 11:45:22;;;;;;;;;32.00;30.67;;;;;;;;5076614;27;45493;-71
2022/04/28 11:47:49;;;;;;;;;39.33;32.67;;;;;;;;5077566;27;45441;-71
2022/04/28 11:50:18;;;;;;;;;35.00;30.00;;;;;;;;5076997;27;45369;-71
2022/04/28 11:52:44;;;;;;;;;34.67;27.67;;;;;;;;5076790;27;45412;-70
2022/04/28 11:55:11;;;;;;;;;35.33;29.67;;;;;;;;5077208;28;45398;-71
2022/04/28 11:57:39;;;;;;;;;37.00;29.67;;;;;;;;5077204;27;45281;-71
2022/04/28 12:00:08;;;;;;;;;31.00;24.67;;;;;;;;5075089;27;46234;-70
2022/04/28 12:02:34;;;;;;;;;36.33;30.33;;;;;;;;5077005;27;45503;-70
2022/04/28 12:05:01;;;;;;;;;32.33;29.00;;;;;;;;5076945;27;45538;-70
2022/04/28 12:07:30;;;;;;;;;27.33;26.33;;;;;;;;5077189;27;45446;-71
2022/04/28 12:15:24;;;;;;;;;35.67;31.67;;;;;;;;5057695;28;45537;-70
2022/04/28 12:20:49;;;;;;;;;36.00;31.33;;;;;;;;5076797;28;45854;-71
2022/04/28 12:23:33;;;;;;;;;31.67;27.67;;;;;;;;5077181;27;45335;-71
2022/04/28 12:26:03;;;;;;;;;41.67;31.67;;;;;;;;5077248;28;45353;-71
2022/04/28 12:28:31;;;;;;;;;32.00;30.67;;;;;;;;5078873;27;45515;-71
2022/04/28 12:30:57;;;;;;;;;37.67;31.33;;;;;;;;5079051;27;46456;-70
2022/04/28 12:33:22;;;;;;;;;35.67;27.00;;;;;;;;5081462;27;45423;-70
2022/04/28 12:35:48;;;;;;;;;31.33;29.00;;;;;;;;5075641;28;45431;-71
2022/04/28 12:38:23;;;;;;;;;33.67;30.33;;;;;;;;5083912;27;45435;-71
2022/04/28 12:40:48;;;;;;;;;28.33;24.00;;;;;;;;5097405;27;45540;-71
2022/04/28 12:43:33;;;;;;;;;26.33;23.00;;;;;;;;5092040;27;45368;-70
2022/04/28 12:45:59;;;;;;;;;26.67;24.33;;;;;;;;5085475;27;45459;-70
2022/04/28 12:48:35;;;;;;;;;31.67;28.33;;;;;;;;5078873;27;45467;-70
2022/04/28 12:51:07;;;;;;;;;28.67;24.33;;;;;;;;5079273;27;46673;-71
2022/04/28 12:53:32;;;;;;;;;32.67;27.33;;;;;;;;5079979;27;45309;-70
2022/04/28 12:56:08;;;;;;;;;33.33;28.67;;;;;;;;5080322;27;45279;-71
2022/04/28 12:58:37;;;;;;;;;28.00;24.33;;;;;;;;5079857;27;45292;-71
2022/04/28 13:01:02;;;;;;;;;32.00;25.33;;;;;;;;5079078;27;47238;-71
2022/04/28 13:03:28;;;;;;;;;18.00;18.00;;;;;;;;5061108;28;45396;-70
2022/04/28 13:05:53;;;;;;;;;27.67;25.33;;;;;;;;5068798;28;45450;-71
2022/04/28 13:08:19;;;;;;;;;28.33;26.00;;;;;;;;5079328;27;45493;-71
2022/04/28 13:10:44;;;;;;;;;25.33;21.67;;;;;;;;5080272;28;45728;-71
2022/04/28 13:13:10;;;;;;;;;27.67;25.67;;;;;;;;5079894;28;45363;-71
2022/04/28 13:15:35;;;;;;;;;27.67;22.67;;;;;;;;5079947;27;45365;-71
2022/04/28 13:18:01;;;;;;;;;27.67;25.00;;;;;;;;5082546;27;45371;-71
2022/04/28 13:20:26;;;;;;;;;27.00;24.33;;;;;;;;5089843;27;47196;-71
2022/04/28 13:22:51;;;;;;;;;32.00;23.00;;;;;;;;5080143;27;45476;-72
2022/04/28 13:25:16;;;;;;;;;29.33;24.67;;;;;;;;5089656;27;45210;-71
2022/04/28 13:27:42;;;;;;;;;24.67;19.67;;;;;;;;5080100;27;45422;-71
2022/04/28 13:30:07;;;;;;;;;25.00;21.67;;;;;;;;5079636;27;47375;-72
2022/04/28 13:32:33;;;;;;;;;31.33;25.00;;;;;;;;5079648;27;45328;-71
2022/04/28 13:34:58;;;;;;;;;29.00;20.33;;;;;;;;5078076;27;45466;-71
2022/04/28 13:37:23;;;;;;;;;26.00;20.33;;;;;;;;5062215;27;45454;-72
2022/04/28 13:39:48;;;;;;;;;25.67;22.33;;;;;;;;5059382;28;47229;-71
2022/04/28 13:42:13;;;;;;;;;29.33;26.33;;;;;;;;5059041;28;45300;-71
2022/04/28 13:44:40;;;;;;;;;30.67;23.00;;;;;;;;5059607;28;45434;-71
2022/04/28 13:47:06;;;;;;;;;28.33;25.33;;;;;;;;5059580;28;45427;-72
2022/04/28 13:49:32;;;;;;;;;31.00;28.00;;;;;;;;5059171;28;45950;-72
2022/04/28 13:51:57;;;;;;;;;28.67;25.67;;;;;;;;5059398;28;45820;-71
2022/04/28 13:54:23;;;;;;;;;33.00;28.33;;;;;;;;5059126;28;45356;-71
2022/04/28 13:56:48;;;;;;;;;22.33;21.67;;;;;;;;5059316;28;45341;-72
2022/04/28 13:59:13;;;;;;;;;29.33;23.00;;;;;;;;5058614;28;45742;-72
2022/04/28 14:01:39;;;;;;;;;31.67;25.67;;;;;;;;5058863;28;45562;-71
2022/04/28 14:04:05;;;;;;;;;24.67;24.33;;;;;;;;5059297;28;45363;-71
2022/04/28 14:06:31;;;;;;;;;30.33;22.67;;;;;;;;5059192;28;45229;-71
2022/04/28 14:08:56;;;;;;;;;30.00;27.33;;;;;;;;5058776;28;46205;-71
2022/04/28 14:11:21;;;;;;;;;26.00;22.33;;;;;;;;5059124;28;45285;-71
2022/04/28 14:13:46;;;;;;;;;30.67;26.33;;;;;;;;5058858;28;45532;-72
2022/04/28 14:16:12;;;;;;;;;30.33;27.33;;;;;;;;5059357;28;45455;-72
2022/04/28 14:18:37;;;;;;;;;26.33;26.00;;;;;;;;5058737;28;46270;-71
2022/04/28 14:21:03;;;;;;;;;18.67;18.33;;;;;;;;5058998;28;45760;-71
2022/04/28 14:23:29;;;;;;;;;28.67;20.67;;;;;;;;5058492;28;45313;-71
2022/04/28 14:25:55;;;;;;;;;30.33;23.67;;;;;;;;5059018;28;45423;-71
2022/04/28 14:28:20;;;;;;;;;26.00;21.00;;;;;;;;5058447;28;45490;-71
2022/04/28 14:30:46;;;;;;;;;21.33;21.33;;;;;;;;5058578;28;45352;-71
2022/04/28 14:33:11;;;;;;;;;28.33;24.33;;;;;;;;5058640;28;45412;-71
2022/04/28 14:35:36;;;;;;;;;29.33;24.67;;;;;;;;5058887;28;45357;-72
2022/04/28 14:38:02;;;;;;;;;26.67;21.67;;;;;;;;5058287;28;46725;-71
2022/04/28 14:40:28;;;;;;;;;24.00;21.33;;;;;;;;5058371;28;45396;-72
2022/04/28 14:42:53;;;;;;;;;28.00;22.00;;;;;;;;5058293;28;45327;-71
2022/04/28 14:45:18;;;;;;;;;30.67;27.67;;;;;;;;5059021;28;45404;-71
2022/04/28 14:47:43;;;;;;;;;24.67;22.67;;;;;;;;5058133;28;46640;-71
2022/04/28 14:52:53;;;;;;;;;28.33;25.33;;;;;;;;5058223;28;45426;-71
2022/04/28 14:55:19;;;;;;;;;26.00;21.33;;;;;;;;5058451;28;45250;-72
2022/04/28 14:57:45;;;;;;;;;25.67;22.67;;;;;;;;5057988;28;46342;-72
2022/04/28 15:00:12;;;;;;;;;27.33;25.33;;;;;;;;5058178;28;45388;-71